Time;durP1;ratioP1;P1;durP2;ratioP2;P2;SDS_P1;SDS_P2;PMS_P1;PMS_P2;Temp;Humidity;BMP_temperature;BMP_pressure;BME280_temperature;BME280_humidity;BME280_pressure;Samples;Min_cycle;Max_cycle;Signal;HPM_P1;HPM_P2
2023/07/30 00:00:23;;;;;;;;;;;16.10;75.90;;;;;;5086642;28;20322;-76
2023/07/30 00:02:48;;;;;;;;;;;16.10;75.40;;;;;;5088071;28;20282;-75
2023/07/30 00:05:14;;;;;;;;;;;16.10;75.50;;;;;;5087862;28;19919;-76
2023/07/30 00:07:39;;;;;;;;;;;16.10;75.60;;;;;;5085777;28;20023;-76
2023/07/30 00:10:05;;;;;;;;;;;16.10;75.60;;;;;;5087611;28;19998;-75
2023/07/30 00:12:31;;;;;;;;;;;16.20;75.70;;;;;;5087709;28;19981;-76
2023/07/30 00:14:57;;;;;;;;;;;16.30;75.70;;;;;;5088095;28;19909;-76
2023/07/30 00:17:22;;;;;;;;;;;16.30;75.60;;;;;;5088023;28;20400;-75
2023/07/30 00:19:48;;;;;;;;;;;16.30;75.50;;;;;;5086883;28;20272;-76
2023/07/30 00:22:13;;;;;;;;;;;16.40;75.50;;;;;;5086537;28;19912;-75
2023/07/30 00:24:39;;;;;;;;;;;16.40;75.40;;;;;;5069723;28;19915;-75
2023/07/30 00:27:05;;;;;;;;;;;16.40;75.30;;;;;;5087908;28;19912;-76
2023/07/30 00:29:30;;;;;;;;;;;16.40;75.30;;;;;;5087797;28;19923;-76
2023/07/30 00:31:56;;;;;;;;;;;16.50;75.80;;;;;;5088088;28;19912;-75
2023/07/30 00:34:21;;;;;;;;;;;16.40;75.30;;;;;;5087799;28;20003;-75
2023/07/30 00:36:47;;;;;;;;;;;16.40;75.30;;;;;;5086587;28;19912;-75
2023/07/30 00:39:12;;;;;;;;;;;16.50;75.40;;;;;;5087313;28;19912;-75
2023/07/30 00:41:38;;;;;;;;;;;16.50;75.40;;;;;;5087886;28;19916;-75
2023/07/30 00:44:04;;;;;;;;;;;16.50;75.40;;;;;;5086555;28;20296;-76
2023/07/30 00:46:30;;;;;;;;;;;16.50;75.30;;;;;;5086653;28;19926;-76
2023/07/30 00:48:55;;;;;;;;;;;16.50;75.30;;;;;;5087689;28;19973;-75
2023/07/30 00:51:21;;;;;;;;;;;16.60;75.30;;;;;;5087726;28;19912;-75
2023/07/30 00:53:47;;;;;;;;;;;16.60;75.30;;;;;;5087735;28;19920;-75
2023/07/30 00:56:14;;;;;;;;;;;16.60;75.30;;;;;;5087526;28;19908;-72
2023/07/30 00:58:39;;;;;;;;;;;16.60;75.30;;;;;;5087458;28;19968;-76
2023/07/30 01:01:05;;;;;;;;;;;16.60;75.30;;;;;;5087324;28;19929;-76
2023/07/30 01:03:30;;;;;;;;;;;16.50;75.20;;;;;;5086441;28;20291;-75
2023/07/30 01:05:56;;;;;;;;;;;16.50;75.30;;;;;;5087682;28;19919;-75
2023/07/30 01:08:21;;;;;;;;;;;16.50;75.30;;;;;;5087514;28;19931;-75
2023/07/30 01:10:47;;;;;;;;;;;16.50;75.30;;;;;;5086198;28;19947;-75
2023/07/30 01:13:13;;;;;;;;;;;16.50;75.30;;;;;;5086908;28;19919;-76
2023/07/30 01:15:39;;;;;;;;;;;16.50;75.30;;;;;;5087244;28;19920;-73
2023/07/30 01:18:05;;;;;;;;;;;16.50;75.30;;;;;;5087392;28;19920;-76
2023/07/30 01:20:31;;;;;;;;;;;16.50;75.30;;;;;;5088484;28;19916;-75
2023/07/30 01:22:58;;;;;;;;;;;16.50;75.40;;;;;;5091135;28;19919;-75
2023/07/30 01:25:24;;;;;;;;;;;16.40;75.30;;;;;;5091082;28;19982;-76
2023/07/30 01:27:51;;;;;;;;;;;16.40;75.30;;;;;;5091355;28;19909;-75
2023/07/30 01:30:27;;;;;;;;;;;16.40;75.40;;;;;;5090975;28;19908;-75
2023/07/30 01:32:54;;;;;;;;;;;16.40;75.40;;;;;;5090818;28;19915;-75
2023/07/30 01:35:25;;;;;;;;;;;16.40;75.40;;;;;;5089256;28;19912;-76
2023/07/30 01:37:51;;;;;;;;;;;16.40;75.40;;;;;;5090645;28;19931;-75
2023/07/30 01:40:17;;;;;;;;;;;16.40;75.40;;;;;;5091026;28;20372;-75
2023/07/30 01:42:42;;;;;;;;;;;16.40;75.60;;;;;;5089245;28;20360;-76
2023/07/30 01:45:08;;;;;;;;;;;16.40;75.40;;;;;;5090684;28;19935;-76
2023/07/30 01:47:33;;;;;;;;;;;16.40;75.40;;;;;;5089293;28;19912;-75
2023/07/30 01:49:59;;;;;;;;;;;16.40;75.40;;;;;;5090486;28;19912;-76
2023/07/30 01:52:25;;;;;;;;;;;16.40;75.40;;;;;;5090502;28;19997;-75
2023/07/30 01:54:50;;;;;;;;;;;16.40;75.40;;;;;;5090295;28;20260;-76
2023/07/30 01:57:16;;;;;;;;;;;16.40;75.50;;;;;;5088898;28;20432;-76
2023/07/30 01:59:41;;;;;;;;;;;16.40;75.40;;;;;;5089919;28;19935;-75
2023/07/30 02:02:07;;;;;;;;;;;16.40;75.50;;;;;;5090478;28;19928;-76
2023/07/30 02:04:33;;;;;;;;;;;16.40;75.40;;;;;;5090422;28;20003;-75
2023/07/30 02:06:59;;;;;;;;;;;16.30;75.40;;;;;;5088639;28;19908;-76
2023/07/30 02:09:25;;;;;;;;;;;16.40;75.50;;;;;;5090287;28;20330;-75
2023/07/30 02:11:51;;;;;;;;;;;16.30;75.30;;;;;;5091813;28;19963;-75
2023/07/30 02:14:17;;;;;;;;;;;16.20;75.10;;;;;;5090511;28;19952;-75
2023/07/30 02:16:43;;;;;;;;;;;16.10;75.20;;;;;;5090134;28;19954;-76
2023/07/30 02:19:08;;;;;;;;;;;16.10;75.30;;;;;;5090152;28;19912;-75
2023/07/30 02:21:36;;;;;;;;;;;16.00;75.30;;;;;;5089996;28;19994;-75
2023/07/30 02:24:02;;;;;;;;;;;16.10;75.40;;;;;;5088730;28;19912;-76
2023/07/30 02:26:28;;;;;;;;;;;16.10;75.50;;;;;;5089974;28;20318;-75
2023/07/30 02:28:53;;;;;;;;;;;16.00;75.50;;;;;;5090247;28;20007;-75
2023/07/30 02:31:19;;;;;;;;;;;16.00;75.50;;;;;;5089622;28;19912;-76
2023/07/30 02:33:44;;;;;;;;;;;16.10;76.00;;;;;;5089795;28;19916;-76
2023/07/30 02:36:10;;;;;;;;;;;16.00;75.50;;;;;;5089481;28;20392;-76
2023/07/30 02:38:35;;;;;;;;;;;16.00;75.30;;;;;;5089708;28;20295;-76
2023/07/30 02:41:01;;;;;;;;;;;16.00;75.40;;;;;;5088241;28;19951;-76
2023/07/30 02:43:26;;;;;;;;;;;16.00;75.50;;;;;;5090035;28;19916;-76
2023/07/30 02:45:52;;;;;;;;;;;16.00;75.50;;;;;;5089620;28;19937;-76
2023/07/30 02:48:17;;;;;;;;;;;16.00;75.50;;;;;;5089465;28;20368;-75
2023/07/30 02:50:43;;;;;;;;;;;16.00;75.50;;;;;;5088113;28;20356;-76
2023/07/30 02:53:09;;;;;;;;;;;16.10;75.50;;;;;;5088116;28;19916;-76
2023/07/30 02:55:34;;;;;;;;;;;16.10;75.50;;;;;;5089337;28;19916;-76
2023/07/30 02:58:00;;;;;;;;;;;16.10;75.50;;;;;;5089387;28;19920;-76
2023/07/30 03:00:25;;;;;;;;;;;16.00;75.40;;;;;;5089097;28;19908;-75
2023/07/30 03:02:51;;;;;;;;;;;16.00;75.50;;;;;;5089081;28;20403;-76
2023/07/30 03:05:16;;;;;;;;;;;16.00;75.50;;;;;;5087697;28;19954;-75
2023/07/30 03:07:42;;;;;;;;;;;16.00;75.60;;;;;;5089104;28;19919;-76
2023/07/30 03:10:07;;;;;;;;;;;16.00;75.60;;;;;;5089123;28;19916;-75
2023/07/30 03:12:33;;;;;;;;;;;15.90;75.50;;;;;;5087801;28;19912;-76
2023/07/30 03:14:58;;;;;;;;;;;16.00;75.60;;;;;;5088967;28;20334;-76
2023/07/30 03:17:25;;;;;;;;;;;15.90;75.60;;;;;;5088928;28;20033;-76
2023/07/30 03:19:50;;;;;;;;;;;16.00;75.70;;;;;;5088988;28;20364;-76
2023/07/30 03:22:16;;;;;;;;;;;16.00;75.70;;;;;;5088729;28;19948;-76
2023/07/30 03:24:41;;;;;;;;;;;16.00;75.70;;;;;;5088792;28;20351;-76
2023/07/30 03:27:07;;;;;;;;;;;16.00;75.70;;;;;;5088731;28;19954;-75
2023/07/30 03:29:32;;;;;;;;;;;16.00;75.70;;;;;;5088889;28;19912;-76
2023/07/30 03:31:58;;;;;;;;;;;16.00;76.10;;;;;;5088688;28;19912;-76
2023/07/30 03:34:23;;;;;;;;;;;16.10;75.70;;;;;;5087451;28;19939;-75
2023/07/30 03:36:49;;;;;;;;;;;16.10;75.70;;;;;;5088519;28;19913;-76
2023/07/30 03:39:15;;;;;;;;;;;16.10;75.70;;;;;;5088497;28;19912;-76
2023/07/30 03:41:40;;;;;;;;;;;16.10;75.70;;;;;;5088554;28;20069;-76
2023/07/30 03:44:06;;;;;;;;;;;16.10;75.70;;;;;;5086934;28;19918;-76
2023/07/30 03:46:31;;;;;;;;;;;16.20;75.70;;;;;;5087854;28;19924;-75
2023/07/30 03:48:57;;;;;;;;;;;16.10;75.60;;;;;;5088659;28;20006;-75
2023/07/30 03:51:22;;;;;;;;;;;16.10;75.60;;;;;;5088439;28;19920;-76
2023/07/30 03:53:48;;;;;;;;;;;16.10;75.60;;;;;;5088510;28;19917;-75
2023/07/30 03:56:13;;;;;;;;;;;16.10;75.60;;;;;;5088325;28;19912;-75
2023/07/30 03:58:39;;;;;;;;;;;16.10;75.60;;;;;;5087226;28;19912;-76
2023/07/30 04:01:06;;;;;;;;;;;16.10;75.60;;;;;;5088131;28;19942;-76
2023/07/30 04:03:34;;;;;;;;;;;16.10;75.60;;;;;;5087505;28;20466;-75
2023/07/30 04:05:59;;;;;;;;;;;16.10;75.60;;;;;;5088062;28;19927;-76
2023/07/30 04:08:25;;;;;;;;;;;16.10;75.70;;;;;;5088227;28;19920;-76
2023/07/30 04:10:50;;;;;;;;;;;16.10;75.70;;;;;;5086903;28;19951;-76
2023/07/30 04:13:16;;;;;;;;;;;16.10;75.70;;;;;;5088323;28;20006;-76
2023/07/30 04:15:42;;;;;;;;;;;16.10;75.70;;;;;;5087962;28;19947;-75
2023/07/30 04:18:07;;;;;;;;;;;16.10;75.70;;;;;;5086953;28;20352;-76
2023/07/30 04:20:33;;;;;;;;;;;16.10;75.60;;;;;;5086901;28;19958;-75
2023/07/30 04:22:58;;;;;;;;;;;16.10;75.70;;;;;;5088326;28;19920;-76
2023/07/30 04:25:24;;;;;;;;;;;16.10;75.70;;;;;;5088152;28;19913;-76
2023/07/30 04:27:49;;;;;;;;;;;16.10;75.70;;;;;;5086788;28;19917;-75
2023/07/30 04:30:15;;;;;;;;;;;16.10;75.70;;;;;;5086668;28;19913;-76
2023/07/30 04:32:40;;;;;;;;;;;16.00;75.70;;;;;;5088022;28;19912;-76
2023/07/30 04:35:06;;;;;;;;;;;16.00;75.60;;;;;;5087949;28;19922;-75
2023/07/30 04:37:32;;;;;;;;;;;15.90;75.60;;;;;;5087867;28;20006;-76
2023/07/30 04:39:57;;;;;;;;;;;15.90;75.60;;;;;;5087853;28;19913;-75
2023/07/30 04:42:23;;;;;;;;;;;15.90;75.70;;;;;;5086521;28;20368;-76
2023/07/30 04:44:48;;;;;;;;;;;15.90;75.70;;;;;;5087755;28;19990;-76
2023/07/30 04:47:14;;;;;;;;;;;15.90;75.80;;;;;;5087850;28;19923;-75
2023/07/30 04:49:40;;;;;;;;;;;15.90;76.20;;;;;;5087561;28;19943;-75
2023/07/30 04:52:06;;;;;;;;;;;15.90;75.80;;;;;;5087749;28;19912;-76
2023/07/30 04:54:32;;;;;;;;;;;15.90;75.70;;;;;;5088671;28;20041;-76
2023/07/30 04:56:58;;;;;;;;;;;15.90;75.60;;;;;;5091747;28;20013;-75
2023/07/30 04:59:23;;;;;;;;;;;15.80;75.60;;;;;;5090584;28;19909;-75
2023/07/30 05:01:49;;;;;;;;;;;15.80;75.60;;;;;;5091462;28;20394;-76
2023/07/30 05:04:14;;;;;;;;;;;15.70;75.60;;;;;;5091521;28;19927;-76
2023/07/30 05:06:40;;;;;;;;;;;15.70;75.80;;;;;;5091546;28;20008;-76
2023/07/30 05:09:05;;;;;;;;;;;15.70;75.90;;;;;;5090335;28;20275;-76
2023/07/30 05:11:31;;;;;;;;;;;15.70;76.30;;;;;;5091415;28;19912;-76
2023/07/30 05:13:56;;;;;;;;;;;15.80;75.90;;;;;;5091449;28;19962;-76
2023/07/30 05:16:22;;;;;;;;;;;15.80;75.90;;;;;;5091180;28;20283;-76
2023/07/30 05:18:47;;;;;;;;;;;15.80;75.90;;;;;;5089943;28;19945;-76
2023/07/30 05:21:13;;;;;;;;;;;15.90;75.90;;;;;;5092645;28;19920;-76
2023/07/30 05:23:38;;;;;;;;;;;15.90;75.90;;;;;;5091289;28;20023;-77
2023/07/30 05:26:04;;;;;;;;;;;16.00;75.80;;;;;;5091132;28;19912;-76
2023/07/30 05:28:30;;;;;;;;;;;16.00;75.70;;;;;;5091214;28;19969;-77
2023/07/30 05:30:55;;;;;;;;;;;16.10;75.80;;;;;;5091165;28;19958;-76
2023/07/30 05:33:21;;;;;;;;;;;16.10;75.80;;;;;;5090904;28;20359;-75
2023/07/30 05:35:47;;;;;;;;;;;16.10;75.80;;;;;;5090843;28;20007;-75
2023/07/30 05:38:13;;;;;;;;;;;16.10;75.80;;;;;;5090828;28;19916;-76
2023/07/30 05:40:39;;;;;;;;;;;16.10;75.80;;;;;;5090841;28;20299;-75
2023/07/30 05:43:04;;;;;;;;;;;16.20;75.70;;;;;;5090857;28;19961;-76
2023/07/30 05:45:30;;;;;;;;;;;16.20;75.80;;;;;;5090630;28;20375;-75
2023/07/30 05:47:55;;;;;;;;;;;16.20;75.80;;;;;;5090624;28;20339;-75
2023/07/30 05:50:21;;;;;;;;;;;16.30;75.80;;;;;;5090803;28;20021;-76
2023/07/30 05:52:46;;;;;;;;;;;16.30;75.70;;;;;;5090536;28;19912;-75
2023/07/30 05:55:12;;;;;;;;;;;16.30;75.70;;;;;;5090492;28;20284;-76
2023/07/30 05:57:37;;;;;;;;;;;16.30;75.60;;;;;;5072387;28;20007;-75
2023/07/30 06:00:03;;;;;;;;;;;16.20;75.40;;;;;;5090541;28;19919;-76
2023/07/30 06:02:29;;;;;;;;;;;16.10;75.50;;;;;;5090266;28;19928;-75
2023/07/30 06:04:54;;;;;;;;;;;16.10;75.60;;;;;;5090340;28;19952;-76
2023/07/30 06:07:20;;;;;;;;;;;16.10;75.60;;;;;;5088251;28;19977;-76
2023/07/30 06:09:45;;;;;;;;;;;16.10;75.60;;;;;;5090299;28;19943;-76
2023/07/30 06:12:11;;;;;;;;;;;16.10;75.80;;;;;;5090175;28;20331;-76
2023/07/30 06:14:36;;;;;;;;;;;16.20;75.80;;;;;;5088785;28;20334;-76
2023/07/30 06:17:02;;;;;;;;;;;16.30;75.80;;;;;;5089938;28;19919;-76
2023/07/30 06:19:28;;;;;;;;;;;16.40;75.80;;;;;;5090142;28;20293;-76
2023/07/30 06:21:53;;;;;;;;;;;16.50;75.70;;;;;;5089982;28;19916;-76
2023/07/30 06:24:19;;;;;;;;;;;16.60;75.60;;;;;;5089966;28;20279;-75
2023/07/30 06:26:44;;;;;;;;;;;16.70;75.60;;;;;;5089963;28;19915;-75
2023/07/30 06:29:10;;;;;;;;;;;16.80;75.60;;;;;;5089987;28;19916;-75
2023/07/30 06:31:35;;;;;;;;;;;17.00;75.50;;;;;;5089726;28;19912;-75
2023/07/30 06:34:01;;;;;;;;;;;17.20;75.30;;;;;;5089747;28;20368;-76
2023/07/30 06:36:26;;;;;;;;;;;17.30;75.10;;;;;;5089513;28;19919;-75
2023/07/30 06:38:52;;;;;;;;;;;17.40;75.20;;;;;;5089677;28;19923;-76
2023/07/30 06:41:17;;;;;;;;;;;17.40;75.10;;;;;;5089663;28;19924;-76
2023/07/30 06:43:43;;;;;;;;;;;17.50;75.00;;;;;;5089225;28;20003;-76
2023/07/30 06:46:09;;;;;;;;;;;17.70;75.00;;;;;;5089435;28;19923;-75
2023/07/30 06:48:34;;;;;;;;;;;18.00;74.60;;;;;;5089294;28;19912;-76
2023/07/30 06:51:00;;;;;;;;;;;18.20;74.30;;;;;;5089212;28;20375;-75
2023/07/30 06:53:25;;;;;;;;;;;18.30;74.00;;;;;;5089268;28;19912;-76
2023/07/30 06:55:51;;;;;;;;;;;18.10;73.90;;;;;;5089879;28;19962;-75
2023/07/30 06:58:16;;;;;;;;;;;17.90;74.20;;;;;;5090676;28;19923;-76
2023/07/30 07:00:42;;;;;;;;;;;17.80;74.50;;;;;;5087571;28;20006;-76
2023/07/30 07:03:07;;;;;;;;;;;17.70;74.80;;;;;;5088949;28;20383;-76
2023/07/30 07:05:33;;;;;;;;;;;17.70;75.00;;;;;;5088853;28;20450;-76
2023/07/30 07:07:58;;;;;;;;;;;17.90;75.30;;;;;;5089128;28;19966;-76
2023/07/30 07:10:24;;;;;;;;;;;18.10;75.40;;;;;;5087664;28;19922;-75
2023/07/30 07:12:50;;;;;;;;;;;18.30;75.30;;;;;;5087674;28;20398;-76
2023/07/30 07:15:15;;;;;;;;;;;18.50;75.30;;;;;;5088928;28;20377;-76
2023/07/30 07:17:41;;;;;;;;;;;18.70;75.30;;;;;;5088114;28;19923;-75
2023/07/30 07:20:07;;;;;;;;;;;18.60;75.00;;;;;;5087329;28;20003;-76
2023/07/30 07:22:33;;;;;;;;;;;18.70;75.30;;;;;;5088695;28;20365;-75
2023/07/30 07:24:58;;;;;;;;;;;19.30;76.00;;;;;;5088549;28;19961;-76
2023/07/30 07:27:24;;;;;;;;;;;20.30;75.80;;;;;;5088535;28;19957;-76
2023/07/30 07:29:50;;;;;;;;;;;21.10;74.90;;;;;;5088459;28;19918;-76
2023/07/30 07:32:15;;;;;;;;;;;21.70;74.30;;;;;;5087246;28;19919;-75
2023/07/30 07:34:41;;;;;;;;;;;22.00;74.10;;;;;;5088763;28;19919;-76
2023/07/30 07:37:07;;;;;;;;;;;22.30;73.70;;;;;;5087073;28;19912;-75
2023/07/30 07:39:33;;;;;;;;;;;22.20;73.30;;;;;;5070026;28;20379;-75
2023/07/30 07:41:59;;;;;;;;;;;21.60;73.30;;;;;;5086801;28;19919;-75
2023/07/30 07:44:24;;;;;;;;;;;21.20;73.90;;;;;;5088000;28;19928;-76
2023/07/30 07:46:50;;;;;;;;;;;20.80;74.40;;;;;;5088274;28;19969;-75
2023/07/30 07:49:15;;;;;;;;;;;20.60;74.90;;;;;;5088423;28;19951;-75
2023/07/30 07:51:41;;;;;;;;;;;20.60;75.20;;;;;;5088105;28;19962;-76
2023/07/30 07:54:06;;;;;;;;;;;20.60;75.50;;;;;;5088013;28;19913;-76
2023/07/30 07:56:32;;;;;;;;;;;20.70;75.50;;;;;;5087983;28;19919;-76
2023/07/30 07:58:58;;;;;;;;;;;21.00;75.80;;;;;;5088427;28;19935;-76
2023/07/30 08:01:23;;;;;;;;;;;22.00;76.50;;;;;;5069223;28;19924;-75
2023/07/30 08:03:49;;;;;;;;;;;23.10;75.20;;;;;;5087873;28;19926;-76
2023/07/30 08:06:14;;;;;;;;;;;23.80;74.60;;;;;;5087758;28;20007;-76
2023/07/30 08:08:40;;;;;;;;;;;24.50;74.40;;;;;;5087777;28;19916;-76
2023/07/30 08:11:07;;;;;;;;;;;25.00;73.90;;;;;;5087740;28;20356;-76
2023/07/30 08:13:32;;;;;;;;;;;25.30;73.60;;;;;;5086474;28;20814;-76
2023/07/30 08:15:58;;;;;;;;;;;25.10;73.10;;;;;;5087792;28;19954;-76
2023/07/30 08:18:23;;;;;;;;;;;24.70;73.10;;;;;;5087753;28;20275;-75
2023/07/30 08:20:49;;;;;;;;;;;24.30;73.80;;;;;;5087810;28;20118;-75
2023/07/30 08:23:15;;;;;;;;;;;24.50;74.70;;;;;;5086534;28;19923;-76
2023/07/30 08:25:41;;;;;;;;;;;25.00;74.90;;;;;;5087691;28;19916;-75
2023/07/30 08:28:06;;;;;;;;;;;25.10;74.00;;;;;;5087688;28;19912;-76
2023/07/30 08:30:32;;;;;;;;;;;25.00;73.90;;;;;;5090528;28;19912;-75
2023/07/30 08:32:57;;;;;;;;;;;24.80;74.20;;;;;;5093665;28;20364;-76
2023/07/30 08:35:23;;;;;;;;;;;24.60;74.40;;;;;;5090325;28;19965;-76
2023/07/30 08:37:48;;;;;;;;;;;24.40;74.90;;;;;;5090387;28;19963;-73
2023/07/30 08:40:14;;;;;;;;;;;24.30;74.60;;;;;;5091607;28;19916;-76
2023/07/30 08:42:40;;;;;;;;;;;24.00;74.50;;;;;;5091329;28;20221;-75
2023/07/30 08:45:06;;;;;;;;;;;23.70;74.50;;;;;;5091439;28;19976;-75
2023/07/30 08:47:31;;;;;;;;;;;23.30;74.60;;;;;;5091358;28;19931;-76
2023/07/30 08:49:57;;;;;;;;;;;22.80;74.70;;;;;;5091520;28;19955;-76
2023/07/30 08:52:24;;;;;;;;;;;22.50;74.90;;;;;;5091423;28;19919;-76
2023/07/30 08:54:49;;;;;;;;;;;22.10;75.20;;;;;;5091361;28;19923;-75
2023/07/30 08:57:17;;;;;;;;;;;21.90;75.40;;;;;;5091240;28;19912;-76
2023/07/30 08:59:50;;;;;;;;;;;21.70;75.40;;;;;;5091311;28;19908;-75
2023/07/30 09:02:18;;;;;;;;;;;21.60;75.50;;;;;;5090959;28;19920;-76
2023/07/30 09:04:45;;;;;;;;;;;21.40;75.30;;;;;;5090888;28;19908;-76
2023/07/30 09:07:11;;;;;;;;;;;21.20;75.20;;;;;;5091140;28;20281;-75
2023/07/30 09:09:37;;;;;;;;;;;20.90;75.40;;;;;;5091208;28;19919;-75
2023/07/30 09:12:02;;;;;;;;;;;20.80;75.60;;;;;;5091140;28;19912;-76
2023/07/30 09:14:28;;;;;;;;;;;20.70;76.30;;;;;;5090765;28;20069;-76
2023/07/30 09:16:57;;;;;;;;;;;20.60;75.80;;;;;;5091006;28;20611;-76
2023/07/30 09:19:22;;;;;;;;;;;20.50;75.70;;;;;;5090661;28;20332;-75
2023/07/30 09:21:48;;;;;;;;;;;20.30;75.50;;;;;;5090523;28;19962;-75
2023/07/30 09:24:20;;;;;;;;;;;20.10;75.50;;;;;;5090385;28;19924;-75
2023/07/30 09:26:46;;;;;;;;;;;19.90;75.80;;;;;;5090671;28;19909;-76
2023/07/30 09:29:11;;;;;;;;;;;19.80;75.90;;;;;;5090235;28;20014;-76
2023/07/30 09:31:46;;;;;;;;;;;19.80;76.20;;;;;;5089157;28;20003;-74
2023/07/30 09:34:15;;;;;;;;;;;19.80;76.20;;;;;;5090234;28;20376;-74
2023/07/30 09:36:40;;;;;;;;;;;19.80;76.10;;;;;;5090281;28;20014;-77
2023/07/30 09:39:14;;;;;;;;;;;19.80;76.10;;;;;;5090234;28;20400;-74
2023/07/30 09:41:41;;;;;;;;;;;19.70;75.90;;;;;;5087671;28;19921;-74
2023/07/30 09:44:07;;;;;;;;;;;19.80;76.10;;;;;;5090179;28;20368;-73
2023/07/30 09:46:41;;;;;;;;;;;19.80;76.10;;;;;;5090091;28;19972;-74
2023/07/30 09:49:07;;;;;;;;;;;19.80;76.00;;;;;;5090165;28;19944;-74
2023/07/30 09:51:34;;;;;;;;;;;19.90;76.00;;;;;;5090004;28;20380;-74
2023/07/30 09:54:01;;;;;;;;;;;19.90;75.90;;;;;;5089859;28;19958;-75
2023/07/30 09:56:26;;;;;;;;;;;20.00;75.90;;;;;;5089351;28;19924;-74
2023/07/30 09:58:52;;;;;;;;;;;20.00;76.00;;;;;;5089423;28;19999;-75
2023/07/30 10:01:19;;;;;;;;;;;20.10;75.90;;;;;;5089064;28;19924;-74
2023/07/30 10:03:44;;;;;;;;;;;20.10;75.80;;;;;;5089453;28;19912;-74
2023/07/30 10:06:11;;;;;;;;;;;20.10;75.80;;;;;;5088590;28;20391;-74
2023/07/30 10:08:38;;;;;;;;;;;20.20;75.70;;;;;;5091712;28;19912;-73
2023/07/30 10:11:06;;;;;;;;;;;20.20;75.80;;;;;;5090469;28;19919;-73
2023/07/30 10:13:32;;;;;;;;;;;20.40;76.00;;;;;;5089614;28;19951;-74
2023/07/30 10:15:58;;;;;;;;;;;20.60;76.10;;;;;;5088586;28;20190;-74
2023/07/30 10:18:40;;;;;;;;;;;20.80;76.00;;;;;;5089387;28;19912;-74
2023/07/30 10:21:10;;;;;;;;;;;21.00;75.80;;;;;;5087825;28;19948;-73
2023/07/30 10:23:36;;;;;;;;;;;21.20;75.60;;;;;;5089374;28;19950;-75
2023/07/30 10:26:10;;;;;;;;;;;21.20;75.50;;;;;;5089256;28;19958;-74
2023/07/30 10:28:38;;;;;;;;;;;21.20;75.30;;;;;;5089058;28;19965;-74
2023/07/30 10:31:13;;;;;;;;;;;21.10;75.20;;;;;;5089115;28;20387;-74
2023/07/30 10:33:53;;;;;;;;;;;20.90;75.20;;;;;;5089319;28;19919;-74
2023/07/30 10:36:26;;;;;;;;;;;20.70;75.40;;;;;;5088952;28;19941;-73
2023/07/30 10:38:52;;;;;;;;;;;20.60;75.70;;;;;;5089202;28;19972;-73
2023/07/30 10:41:18;;;;;;;;;;;20.40;75.50;;;;;;5088811;28;20352;-74
2023/07/30 10:43:48;;;;;;;;;;;20.30;75.60;;;;;;5088947;28;19908;-73
2023/07/30 10:46:15;;;;;;;;;;;20.30;75.80;;;;;;5087571;28;19908;-74
2023/07/30 10:48:45;;;;;;;;;;;20.30;75.70;;;;;;5088797;28;19972;-74
2023/07/30 10:51:15;;;;;;;;;;;20.30;75.70;;;;;;5088765;28;19916;-76
2023/07/30 10:53:45;;;;;;;;;;;20.40;75.70;;;;;;5086666;28;19912;-75
2023/07/30 10:56:11;;;;;;;;;;;20.50;75.70;;;;;;5088421;28;20011;-76
2023/07/30 10:58:37;;;;;;;;;;;20.50;75.60;;;;;;5088914;28;19920;-75
2023/07/30 11:01:06;;;;;;;;;;;20.40;75.50;;;;;;5088408;28;19924;-75
2023/07/30 11:03:32;;;;;;;;;;;20.40;75.50;;;;;;5087283;28;20074;-75
2023/07/30 11:05:58;;;;;;;;;;;20.40;75.50;;;;;;5088416;28;19908;-75
2023/07/30 11:08:36;;;;;;;;;;;20.40;75.50;;;;;;5088627;28;20675;-76
2023/07/30 11:11:02;;;;;;;;;;;20.40;75.70;;;;;;5088661;28;19908;-76
2023/07/30 11:13:27;;;;;;;;;;;20.50;75.80;;;;;;5088260;28;19912;-75
2023/07/30 11:15:53;;;;;;;;;;;20.60;75.70;;;;;;5087885;28;19961;-76
2023/07/30 11:18:19;;;;;;;;;;;20.80;75.70;;;;;;5087028;28;20006;-75
2023/07/30 11:20:44;;;;;;;;;;;20.90;75.70;;;;;;5086915;28;19985;-75
2023/07/30 11:23:20;;;;;;;;;;;20.90;75.40;;;;;;5086673;28;19928;-75
2023/07/30 11:25:47;;;;;;;;;;;20.80;75.30;;;;;;5088271;28;19908;-75
2023/07/30 11:28:12;;;;;;;;;;;20.80;75.30;;;;;;5088096;28;20007;-75
2023/07/30 11:30:38;;;;;;;;;;;20.80;75.40;;;;;;5086815;28;20462;-75
2023/07/30 11:33:04;;;;;;;;;;;20.70;75.10;;;;;;5088207;28;20003;-75
2023/07/30 11:35:29;;;;;;;;;;;20.40;74.90;;;;;;5087840;28;19943;-75
2023/07/30 11:37:57;;;;;;;;;;;20.10;75.00;;;;;;5088027;28;19912;-74
2023/07/30 11:40:23;;;;;;;;;;;19.90;75.20;;;;;;5088068;28;19919;-75
2023/07/30 11:42:48;;;;;;;;;;;19.70;75.50;;;;;;5087693;28;20026;-75
2023/07/30 11:45:20;;;;;;;;;;;19.70;75.90;;;;;;5087932;28;20295;-75
2023/07/30 11:47:46;;;;;;;;;;;19.70;75.90;;;;;;5087929;28;19908;-76
2023/07/30 11:50:12;;;;;;;;;;;19.70;75.60;;;;;;5086572;28;19916;-75
2023/07/30 11:52:50;;;;;;;;;;;19.70;75.50;;;;;;5087763;28;19912;-75
2023/07/30 11:55:16;;;;;;;;;;;19.70;75.60;;;;;;5087517;28;19930;-76
2023/07/30 11:57:41;;;;;;;;;;;19.80;75.80;;;;;;5087543;28;19924;-77
2023/07/30 12:00:10;;;;;;;;;;;19.90;75.70;;;;;;5069589;28;20007;-76
2023/07/30 12:02:36;;;;;;;;;;;20.00;75.60;;;;;;5087468;28;19931;-76
2023/07/30 12:05:03;;;;;;;;;;;20.00;75.60;;;;;;5087129;28;20003;-76
2023/07/30 12:07:28;;;;;;;;;;;20.10;75.70;;;;;;5087481;28;19920;-77
2023/07/30 12:09:54;;;;;;;;;;;20.20;75.60;;;;;;5087415;28;19919;-76
2023/07/30 12:12:19;;;;;;;;;;;20.30;75.50;;;;;;5087532;28;19951;-77
2023/07/30 12:14:48;;;;;;;;;;;20.40;75.40;;;;;;5087347;28;20421;-77
2023/07/30 12:17:13;;;;;;;;;;;20.40;75.40;;;;;;5087239;28;19915;-77
2023/07/30 12:19:40;;;;;;;;;;;20.50;75.60;;;;;;5086499;28;19999;-75
2023/07/30 12:22:05;;;;;;;;;;;20.70;75.70;;;;;;5086597;28;19921;-77
2023/07/30 12:24:31;;;;;;;;;;;20.90;75.60;;;;;;5086878;28;20391;-76
2023/07/30 12:26:57;;;;;;;;;;;21.00;75.40;;;;;;5087458;28;19920;-77
2023/07/30 12:29:22;;;;;;;;;;;21.10;75.40;;;;;;5087375;28;19912;-77
2023/07/30 12:31:48;;;;;;;;;;;21.20;75.20;;;;;;5087002;28;20000;-77
2023/07/30 12:34:15;;;;;;;;;;;21.10;75.20;;;;;;5086290;28;20379;-76
2023/07/30 12:36:40;;;;;;;;;;;21.00;75.10;;;;;;5086177;28;20012;-77
2023/07/30 12:39:07;;;;;;;;;;;20.90;75.20;;;;;;5086097;28;20336;-77
2023/07/30 12:41:32;;;;;;;;;;;20.80;75.20;;;;;;5087371;28;19965;-77
2023/07/30 12:43:58;;;;;;;;;;;20.80;75.40;;;;;;5087019;28;19916;-77
2023/07/30 12:46:24;;;;;;;;;;;20.70;75.40;;;;;;5086861;28;19908;-68
2023/07/30 12:48:51;;;;;;;;;;;20.60;75.40;;;;;;5086948;28;19923;-77
2023/07/30 12:51:16;;;;;;;;;;;20.50;75.50;;;;;;5087040;28;19931;-76
2023/07/30 12:53:42;;;;;;;;;;;20.50;75.70;;;;;;5086844;28;19964;-77
2023/07/30 12:56:07;;;;;;;;;;;20.50;75.60;;;;;;5086569;28;19965;-76
2023/07/30 12:58:33;;;;;;;;;;;20.50;75.70;;;;;;5085500;28;20018;-76
2023/07/30 13:00:58;;;;;;;;;;;20.40;75.60;;;;;;5087103;28;19920;-77
2023/07/30 13:03:24;;;;;;;;;;;20.40;75.70;;;;;;5086783;28;20267;-77
2023/07/30 13:05:49;;;;;;;;;;;20.30;75.50;;;;;;5085517;28;19923;-77
2023/07/30 13:08:15;;;;;;;;;;;20.20;75.50;;;;;;5085388;28;19912;-76
2023/07/30 13:10:40;;;;;;;;;;;20.10;75.50;;;;;;5086839;28;19916;-76
2023/07/30 13:13:06;;;;;;;;;;;20.00;75.60;;;;;;5087097;28;20372;-76
2023/07/30 13:15:32;;;;;;;;;;;20.00;75.80;;;;;;5088050;28;20065;-77
2023/07/30 13:17:57;;;;;;;;;;;20.00;75.80;;;;;;5090703;28;19973;-76
2023/07/30 13:20:23;;;;;;;;;;;19.90;75.80;;;;;;5091050;28;19918;-77
2023/07/30 13:22:50;;;;;;;;;;;19.90;75.80;;;;;;5091771;28;20398;-76
2023/07/30 13:25:15;;;;;;;;;;;19.80;75.60;;;;;;5091704;28;20228;-77
2023/07/30 13:27:41;;;;;;;;;;;19.70;75.60;;;;;;5090526;28;20401;-76
2023/07/30 13:30:07;;;;;;;;;;;19.60;75.50;;;;;;5090429;28;19912;-76
2023/07/30 13:32:32;;;;;;;;;;;19.50;75.60;;;;;;5090329;28;19999;-76
2023/07/30 13:34:58;;;;;;;;;;;19.50;75.90;;;;;;5090460;28;19912;-76
2023/07/30 13:37:24;;;;;;;;;;;19.50;76.10;;;;;;5090672;28;19973;-76
2023/07/30 13:39:49;;;;;;;;;;;19.70;76.20;;;;;;5088698;28;20019;-76
2023/07/30 13:42:15;;;;;;;;;;;19.90;76.20;;;;;;5090326;28;20493;-76
2023/07/30 13:44:40;;;;;;;;;;;20.10;76.10;;;;;;5090223;28;19922;-76
2023/07/30 13:47:06;;;;;;;;;;;20.20;75.90;;;;;;5089904;28;19912;-76
2023/07/30 13:49:31;;;;;;;;;;;20.20;75.80;;;;;;5090103;28;19959;-76
2023/07/30 13:51:57;;;;;;;;;;;20.20;75.70;;;;;;5088510;28;19935;-76
2023/07/30 13:54:23;;;;;;;;;;;20.20;75.70;;;;;;5089970;28;19920;-76
2023/07/30 13:56:48;;;;;;;;;;;20.10;75.70;;;;;;5089863;28;19974;-75
2023/07/30 13:59:14;;;;;;;;;;;20.00;75.70;;;;;;5088758;28;19923;-76
2023/07/30 14:01:39;;;;;;;;;;;19.90;75.80;;;;;;5089592;28;19928;-75
2023/07/30 14:04:05;;;;;;;;;;;19.80;75.80;;;;;;5089982;28;20040;-76
2023/07/30 14:06:30;;;;;;;;;;;19.70;75.90;;;;;;5088316;28;19962;-76
2023/07/30 14:08:57;;;;;;;;;;;19.70;76.10;;;;;;5089785;28;19913;-76